createdAt,value
2022-10-23T00:01:19.721Z,4.50
2022-10-23T00:03:47.247Z,4.40
2022-10-23T00:06:14.688Z,2.83
2022-10-23T00:08:41.353Z,3.10
2022-10-23T00:11:13.009Z,3.50
2022-10-23T00:13:40.075Z,3.10
2022-10-23T00:16:07.529Z,3.13
2022-10-23T00:18:34.192Z,2.97
2022-10-23T00:21:01.643Z,3.13
2022-10-23T00:23:28.155Z,3.20
2022-10-23T00:25:54.581Z,3.20
2022-10-23T00:28:21.051Z,3.03
2022-10-23T00:30:47.490Z,2.50
2022-10-23T00:33:13.917Z,2.27
2022-10-23T00:35:41.277Z,2.60
2022-10-23T00:38:08.909Z,4.07
2022-10-23T00:40:36.351Z,2.77
2022-10-23T00:43:03.828Z,3.40
2022-10-23T00:45:33.380Z,3.00
2022-10-23T00:48:01.722Z,2.20
2022-10-23T00:50:31.339Z,2.43
2022-10-23T00:53:00.719Z,2.40
2022-10-23T00:55:28.346Z,3.30
2022-10-23T00:57:55.075Z,2.83
2022-10-23T01:00:27.570Z,2.60
2022-10-23T01:02:54.997Z,3.23
2022-10-23T01:05:36.643Z,3.03
2022-10-23T01:08:12.753Z,3.17
2022-10-23T01:10:52.625Z,3.67
2022-10-23T01:13:37.166Z,3.20
2022-10-23T01:16:17.882Z,3.73
2022-10-23T01:19:03.929Z,3.90
2022-10-23T01:21:58.929Z,3.80
2022-10-23T01:24:49.965Z,2.77
2022-10-23T01:27:19.036Z,3.30
2022-10-23T01:30:11.731Z,2.57
2022-10-23T01:33:04.285Z,2.50
2022-10-23T01:35:46.812Z,2.97
2022-10-23T01:38:27.587Z,3.40
2022-10-23T01:41:19.929Z,2.50
2022-10-23T01:44:10.840Z,1.77
2022-10-23T01:46:37.543Z,2.40
2022-10-23T01:49:07.862Z,3.03
2022-10-23T01:51:37.854Z,2.53
2022-10-23T01:54:07.641Z,2.10
2022-10-23T01:56:36.148Z,2.13
2022-10-23T01:59:08.562Z,3.07
2022-10-23T02:01:38.460Z,2.60
2022-10-23T02:04:10.230Z,3.30
2022-10-23T02:06:36.657Z,2.27
2022-10-23T02:09:04.440Z,2.40
2022-10-23T02:11:37.177Z,2.80
2022-10-23T02:14:06.629Z,2.97
2022-10-23T02:16:45.792Z,2.93
2022-10-23T02:19:17.991Z,2.70
2022-10-23T02:22:06.684Z,2.40
2022-10-23T02:24:39.272Z,2.80
2022-10-23T02:27:13.764Z,2.53
2022-10-23T02:29:45.555Z,2.50
2022-10-23T02:32:14.509Z,2.43
2022-10-23T02:34:41.145Z,2.70
2022-10-23T02:37:07.653Z,2.40
2022-10-23T02:39:34.229Z,2.70
2022-10-23T02:42:11.266Z,2.80
2022-10-23T02:45:08.526Z,3.13
2022-10-23T02:47:41.517Z,3.60
2022-10-23T02:50:23.714Z,3.13
2022-10-23T02:53:02.549Z,3.00
2022-10-23T02:55:44.539Z,2.87
2022-10-23T02:58:29.598Z,3.00
2022-10-23T03:01:03.610Z,3.63
2022-10-23T03:03:35.257Z,3.17
2022-10-23T03:06:01.853Z,3.93
2022-10-23T03:08:28.287Z,3.23
2022-10-23T03:10:54.758Z,2.70
2022-10-23T03:13:21.264Z,3.40
2022-10-23T03:15:47.683Z,3.20
2022-10-23T03:18:14.068Z,3.80
2022-10-23T03:20:40.496Z,3.97
2022-10-23T03:23:06.964Z,4.47
2022-10-23T03:25:33.371Z,3.93
2022-10-23T03:28:00.253Z,4.70
2022-10-23T03:30:26.666Z,4.80
2022-10-23T03:32:53.073Z,4.40
2022-10-23T03:35:19.510Z,5.20
2022-10-23T03:37:46.002Z,5.20
2022-10-23T03:40:12.517Z,4.47
2022-10-23T03:42:38.989Z,4.90
2022-10-23T03:45:05.884Z,4.70
2022-10-23T03:47:35.147Z,4.53
2022-10-23T03:50:01.864Z,4.37
2022-10-23T03:52:28.276Z,3.30
2022-10-23T03:54:54.670Z,4.10
2022-10-23T03:57:21.125Z,4.20
2022-10-23T03:59:47.556Z,3.50
2022-10-23T04:02:13.991Z,4.40
2022-10-23T04:04:40.470Z,6.27
2022-10-23T04:07:06.846Z,6.63
2022-10-23T04:09:33.273Z,6.50
2022-10-23T04:11:59.709Z,6.17
2022-10-23T04:14:26.317Z,6.60
2022-10-23T04:16:52.780Z,5.63
2022-10-23T04:19:19.245Z,6.13
2022-10-23T04:21:45.682Z,6.33
2022-10-23T04:24:12.081Z,6.00
2022-10-23T04:26:38.509Z,4.30
2022-10-23T04:29:05.098Z,4.70
2022-10-23T04:31:31.516Z,4.97
2022-10-23T04:33:57.989Z,4.77
2022-10-23T04:36:24.443Z,4.30
2022-10-23T04:38:50.880Z,4.10
2022-10-23T04:41:17.396Z,4.53
2022-10-23T04:43:43.832Z,4.47
2022-10-23T04:46:10.333Z,4.30
2022-10-23T04:48:36.729Z,3.90
2022-10-23T04:51:05.791Z,4.60
2022-10-23T04:53:32.846Z,4.50
2022-10-23T04:56:00.445Z,5.40
2022-10-23T04:58:28.574Z,4.60
2022-10-23T05:00:55.731Z,5.27
2022-10-23T05:03:23.637Z,5.13
2022-10-23T05:05:53.322Z,5.57
2022-10-23T05:08:19.893Z,4.77
2022-10-23T05:10:47.859Z,4.80
2022-10-23T05:13:14.420Z,4.67
2022-10-23T05:15:40.973Z,4.40
2022-10-23T05:18:21.933Z,4.10
2022-10-23T05:20:51.792Z,3.87
2022-10-23T05:23:22.432Z,4.17
2022-10-23T05:25:48.869Z,4.73
2022-10-23T05:28:15.509Z,5.53
2022-10-23T05:30:42.669Z,5.70
2022-10-23T05:33:09.910Z,5.80
2022-10-23T05:35:36.955Z,5.40
2022-10-23T05:38:04.542Z,6.20
2022-10-23T05:40:31.052Z,5.50
2022-10-23T05:42:57.493Z,5.70
2022-10-23T05:45:23.942Z,6.50
2022-10-23T05:47:50.489Z,6.60
2022-10-23T05:50:17.359Z,6.57
2022-10-23T05:52:46.330Z,6.97
2022-10-23T05:55:12.762Z,6.53
2022-10-23T05:57:39.189Z,7.57
2022-10-23T06:00:06.240Z,7.30
2022-10-23T06:02:33.778Z,6.90
2022-10-23T06:05:00.334Z,7.90
2022-10-23T06:07:31.177Z,7.97
2022-10-23T06:10:00.299Z,7.80
2022-10-23T06:12:26.815Z,7.80
2022-10-23T06:14:53.230Z,8.80
2022-10-23T06:17:19.669Z,8.30
2022-10-23T06:19:46.301Z,9.33
2022-10-23T06:22:13.095Z,9.23
2022-10-23T06:24:39.487Z,8.97
2022-10-23T06:27:05.912Z,8.80
2022-10-23T06:29:32.338Z,8.37
2022-10-23T06:31:58.773Z,7.77
2022-10-23T06:34:25.204Z,8.90
2022-10-23T06:36:51.610Z,8.40
2022-10-23T06:39:17.979Z,7.90
2022-10-23T06:41:45.404Z,8.40
2022-10-23T06:44:11.776Z,7.90
2022-10-23T06:46:38.156Z,8.70
2022-10-23T06:49:04.516Z,8.77
2022-10-23T06:51:30.955Z,8.33
2022-10-23T06:53:57.402Z,8.73
2022-10-23T06:56:25.257Z,8.00
2022-10-23T06:58:51.815Z,8.53
2022-10-23T07:01:18.374Z,8.40
2022-10-23T07:03:45.099Z,8.20
2022-10-23T07:06:11.622Z,9.27
2022-10-23T07:08:38.369Z,8.73
2022-10-23T07:11:10.249Z,9.37
2022-10-23T07:13:38.472Z,8.80
2022-10-23T07:16:16.432Z,7.93
2022-10-23T07:18:43.362Z,8.43
2022-10-23T07:21:09.991Z,8.10
2022-10-23T07:23:36.440Z,7.73
2022-10-23T07:26:11.381Z,7.20
2022-10-23T07:28:37.906Z,7.47
2022-10-23T07:31:04.548Z,6.83
2022-10-23T07:33:30.998Z,6.80
2022-10-23T07:35:57.416Z,7.13
2022-10-23T07:38:23.973Z,6.70
2022-10-23T07:40:53.850Z,6.27
2022-10-23T07:43:21.052Z,6.70
2022-10-23T07:45:48.895Z,6.60
2022-10-23T07:48:16.364Z,6.00
2022-10-23T07:50:42.829Z,6.50
2022-10-23T07:53:19.221Z,7.37
2022-10-23T07:55:57.060Z,7.23
2022-10-23T07:58:24.172Z,6.10
2022-10-23T08:00:55.850Z,7.23
2022-10-23T08:03:22.317Z,6.93
2022-10-23T08:05:48.716Z,6.27
2022-10-23T08:08:15.129Z,6.33
2022-10-23T08:10:41.710Z,5.83
2022-10-23T08:13:11.801Z,5.63
2022-10-23T08:15:38.229Z,6.53
2022-10-23T08:18:04.667Z,7.03
2022-10-23T08:20:31.092Z,6.10
2022-10-23T08:22:57.538Z,5.30
2022-10-23T08:25:25.242Z,6.30
2022-10-23T08:27:52.544Z,5.73
2022-10-23T08:30:18.979Z,6.40
2022-10-23T08:32:45.365Z,5.90
2022-10-23T08:35:11.760Z,6.20
2022-10-23T08:37:38.194Z,4.53
2022-10-23T08:40:05.111Z,5.30
2022-10-23T08:42:36.284Z,4.90
2022-10-23T08:45:14.229Z,5.37
2022-10-23T08:47:49.452Z,5.47
2022-10-23T08:53:13.333Z,4.53
2022-10-23T08:55:46.647Z,4.97
2022-10-23T08:58:23.494Z,4.60
2022-10-23T09:00:51.477Z,5.00
2022-10-23T09:03:18.579Z,4.90
2022-10-23T09:05:59.953Z,4.07
2022-10-23T09:08:48.427Z,5.07
2022-10-23T09:11:35.710Z,4.17
2022-10-23T09:14:19.657Z,4.20
2022-10-23T09:16:49.284Z,4.57
2022-10-23T09:19:19.193Z,5.00
2022-10-23T09:21:49.753Z,4.20
2022-10-23T09:24:18.692Z,5.07
2022-10-23T09:26:49.701Z,5.13
2022-10-23T09:29:27.522Z,4.57
2022-10-23T09:32:01.843Z,4.80
2022-10-23T09:34:30.942Z,6.00
2022-10-23T09:37:21.752Z,5.73
2022-10-23T09:39:48.222Z,6.67
2022-10-23T09:42:23.891Z,5.30
2022-10-23T09:44:53.133Z,3.50
2022-10-23T09:47:22.699Z,4.30
2022-10-23T09:49:52.173Z,3.87
2022-10-23T09:52:18.473Z,4.10
2022-10-23T09:54:54.491Z,4.07
2022-10-23T09:57:44.012Z,3.90
2022-10-23T10:00:13.745Z,3.60
2022-10-23T10:02:57.175Z,4.00
2022-10-23T10:05:38.319Z,4.03
2022-10-23T10:08:20.550Z,4.00
2022-10-23T10:10:54.069Z,4.13
2022-10-23T10:13:33.218Z,3.60
2022-10-23T10:16:18.544Z,4.10
2022-10-23T10:18:57.388Z,5.10
2022-10-23T10:21:45.369Z,4.43
2022-10-23T10:24:38.980Z,4.00
2022-10-23T10:27:34.496Z,4.17
2022-10-23T10:30:12.675Z,4.03
2022-10-23T10:32:57.872Z,4.50
2022-10-23T10:35:42.722Z,6.30
2022-10-23T10:38:35.622Z,7.50
2022-10-23T10:41:26.685Z,5.67
2022-10-23T10:44:04.574Z,4.37
2022-10-23T10:46:50.495Z,4.30
2022-10-23T10:49:30.595Z,4.90
2022-10-23T10:52:21.388Z,4.83
2022-10-23T10:55:09.209Z,4.70
2022-10-23T10:57:41.980Z,4.27
2022-10-23T11:00:20.572Z,4.30
2022-10-23T11:02:55.174Z,4.10
2022-10-23T11:05:44.513Z,4.27
2022-10-23T11:08:14.244Z,3.37
2022-10-23T11:10:45.565Z,2.97
2022-10-23T11:13:27.282Z,3.77
2022-10-23T11:16:00.264Z,3.60
2022-10-23T11:18:29.628Z,4.53
2022-10-23T11:21:16.941Z,3.63
2022-10-23T11:24:41.418Z,3.57
2022-10-23T11:27:29.974Z,3.67
2022-10-23T11:30:28.681Z,3.73
2022-10-23T11:33:18.039Z,4.10
2022-10-23T11:35:53.170Z,3.53
2022-10-23T11:38:24.524Z,3.73
2022-10-23T11:40:54.730Z,3.67
2022-10-23T11:43:36.808Z,3.30
2022-10-23T11:46:14.788Z,4.00
2022-10-23T11:48:43.587Z,3.90
2022-10-23T11:51:30.716Z,3.50
2022-10-23T11:54:15.323Z,3.87
2022-10-23T11:57:10.423Z,2.90
2022-10-23T11:59:49.134Z,3.10
2022-10-23T12:02:38.132Z,3.93
2022-10-23T12:05:06.980Z,3.67
2022-10-23T12:07:38.001Z,3.17
2022-10-23T12:10:27.008Z,3.50
2022-10-23T12:12:58.870Z,3.03
2022-10-23T12:15:26.186Z,3.60
2022-10-23T12:18:08.326Z,3.40
2022-10-23T12:20:49.954Z,3.87
2022-10-23T12:23:16.397Z,3.03
2022-10-23T12:25:55.381Z,3.37
2022-10-23T12:28:39.606Z,3.77
2022-10-23T12:31:14.484Z,2.83
2022-10-23T12:34:00.569Z,3.57
2022-10-23T12:36:48.293Z,4.40
2022-10-23T12:39:32.423Z,2.80
2022-10-23T12:42:00.461Z,2.83
2022-10-23T12:44:27.775Z,4.03
2022-10-23T12:47:02.495Z,2.63
2022-10-23T12:49:35.408Z,3.73
2022-10-23T12:52:05.221Z,3.47
2022-10-23T12:54:33.592Z,3.53
2022-10-23T12:57:00.065Z,3.27
2022-10-23T12:59:33.209Z,3.87
2022-10-23T13:02:00.153Z,3.60
2022-10-23T13:04:33.303Z,3.30
2022-10-23T13:07:02.242Z,3.03
2022-10-23T13:09:41.873Z,3.47
2022-10-23T13:12:15.575Z,3.20
2022-10-23T13:14:44.575Z,3.30
2022-10-23T13:17:12.141Z,3.20
2022-10-23T13:19:38.783Z,2.90
2022-10-23T13:22:24.505Z,2.97
2022-10-23T13:24:50.913Z,2.73
2022-10-23T13:27:33.130Z,2.80
2022-10-23T13:29:59.582Z,3.23
2022-10-23T13:32:30.084Z,2.50
2022-10-23T13:35:04.367Z,2.73
2022-10-23T13:37:36.913Z,3.07
2022-10-23T13:40:09.628Z,2.70
2022-10-23T13:42:36.453Z,2.60
2022-10-23T13:45:02.888Z,3.47
2022-10-23T13:47:29.360Z,2.70
2022-10-23T13:49:55.712Z,3.10
2022-10-23T13:52:23.717Z,2.70
2022-10-23T13:54:50.641Z,2.53
2022-10-23T13:57:17.028Z,2.70
2022-10-23T13:59:43.493Z,2.93
2022-10-23T14:02:23.513Z,2.87
2022-10-23T14:04:50.876Z,2.00
2022-10-23T14:07:17.737Z,2.63
2022-10-23T14:09:44.693Z,2.90
2022-10-23T14:12:12.336Z,3.63
2022-10-23T14:14:38.675Z,3.73
2022-10-23T14:17:05.075Z,3.60
2022-10-23T14:19:33.845Z,2.90
2022-10-23T14:22:00.293Z,3.47
2022-10-23T14:24:26.677Z,5.00
2022-10-23T14:26:53.105Z,3.50
2022-10-23T14:29:23.897Z,2.93
2022-10-23T14:31:51.121Z,4.47
2022-10-23T14:34:17.547Z,3.83
2022-10-23T14:36:56.491Z,2.60
2022-10-23T14:39:23.428Z,2.83
2022-10-23T14:41:49.842Z,3.50
2022-10-23T14:44:16.217Z,2.50
2022-10-23T14:46:42.666Z,3.20
2022-10-23T14:49:09.029Z,3.33
2022-10-23T14:51:35.435Z,3.20
2022-10-23T14:54:04.526Z,2.90
2022-10-23T14:56:33.536Z,3.23
2022-10-23T14:59:03.644Z,3.03
2022-10-23T15:01:35.647Z,3.00
2022-10-23T15:04:02.385Z,2.80
2022-10-23T15:06:28.821Z,2.90
2022-10-23T15:08:55.567Z,3.13
2022-10-23T15:11:23.482Z,4.20
2022-10-23T15:13:50.135Z,3.13
2022-10-23T15:16:16.880Z,3.30
2022-10-23T15:18:43.565Z,3.10
2022-10-23T15:21:10.177Z,3.77
2022-10-23T15:23:38.959Z,4.07
2022-10-23T15:26:11.469Z,3.83
2022-10-23T15:28:38.484Z,3.30
2022-10-23T15:31:05.940Z,3.80
2022-10-23T15:33:32.392Z,3.83
2022-10-23T15:35:58.810Z,3.30
2022-10-23T15:38:26.078Z,2.97
2022-10-23T15:40:58.893Z,2.90
2022-10-23T15:43:25.389Z,3.13
2022-10-23T15:45:51.868Z,2.77
2022-10-23T15:48:18.432Z,3.23
2022-10-23T15:50:44.792Z,2.73
2022-10-23T15:53:11.224Z,3.33
2022-10-23T15:55:37.671Z,4.13
2022-10-23T15:58:05.495Z,5.23
2022-10-23T16:00:35.912Z,4.47
2022-10-23T16:03:02.605Z,3.03
2022-10-23T16:05:29.053Z,2.97
2022-10-23T16:07:55.457Z,4.07
2022-10-23T16:10:22.804Z,3.63
2022-10-23T16:12:49.184Z,4.60
2022-10-23T16:15:15.689Z,4.00
2022-10-23T16:17:42.413Z,4.20
2022-10-23T16:20:11.867Z,4.37
2022-10-23T16:22:41.337Z,4.37
2022-10-23T16:25:10.664Z,3.40
2022-10-23T16:27:37.073Z,4.03
2022-10-23T16:30:06.179Z,3.70
2022-10-23T16:32:32.609Z,3.70
2022-10-23T16:34:58.984Z,4.00
2022-10-23T16:37:25.469Z,4.33
2022-10-23T16:39:51.921Z,5.97
2022-10-23T16:44:49.595Z,4.47
2022-10-23T16:47:16.118Z,4.00
2022-10-23T16:49:42.678Z,4.00
2022-10-23T16:52:09.779Z,4.10
2022-10-23T16:54:36.206Z,4.30
2022-10-23T16:57:02.664Z,4.60
2022-10-23T16:59:29.025Z,5.37
2022-10-23T17:01:55.560Z,5.17
2022-10-23T17:04:22.093Z,5.67
2022-10-23T17:06:48.533Z,4.13
2022-10-23T17:09:15.021Z,8.40
2022-10-23T17:11:44.172Z,8.33
2022-10-23T17:14:17.408Z,6.60
2022-10-23T17:16:51.592Z,7.73
2022-10-23T17:19:40.102Z,9.07
2022-10-23T17:22:10.604Z,7.57
2022-10-23T17:24:41.360Z,5.93
2022-10-23T17:27:08.234Z,2.60
2022-10-23T17:29:35.270Z,3.07
2022-10-23T17:32:01.926Z,2.70
2022-10-23T17:34:28.340Z,2.40
2022-10-23T17:36:55.688Z,2.27
2022-10-23T17:39:26.181Z,2.17
2022-10-23T17:41:53.524Z,1.90
2022-10-23T17:44:20.153Z,2.30
2022-10-23T17:46:52.130Z,2.47
2022-10-23T17:49:18.507Z,2.70
2022-10-23T17:51:44.953Z,3.20
2022-10-23T17:54:12.843Z,2.80
2022-10-23T17:56:40.687Z,3.77
2022-10-23T17:59:12.146Z,3.90
2022-10-23T18:01:39.280Z,4.00
2022-10-23T18:04:07.671Z,3.70
2022-10-23T18:06:46.401Z,4.10
2022-10-23T18:09:13.086Z,3.63
2022-10-23T18:11:45.373Z,4.30
2022-10-23T18:14:15.657Z,4.33
2022-10-23T18:16:42.220Z,4.10
2022-10-23T18:19:08.705Z,4.30
2022-10-23T18:21:35.861Z,4.20
2022-10-23T18:24:03.031Z,4.77
2022-10-23T18:26:32.223Z,4.40
2022-10-23T18:28:59.378Z,5.60
2022-10-23T18:31:29.570Z,4.57
2022-10-23T18:33:57.967Z,5.30
2022-10-23T18:36:28.520Z,4.77
2022-10-23T18:41:23.565Z,4.80
2022-10-23T18:43:51.660Z,7.17
2022-10-23T18:46:19.669Z,5.20
2022-10-23T18:48:47.604Z,6.03
2022-10-23T18:51:17.068Z,5.87
2022-10-23T18:53:46.645Z,5.20
2022-10-23T18:56:14.848Z,5.90
2022-10-23T18:58:41.366Z,6.03
2022-10-23T19:01:07.845Z,5.83
2022-10-23T19:03:34.349Z,5.53
2022-10-23T19:06:00.762Z,5.97
2022-10-23T19:08:27.138Z,5.60
2022-10-23T19:10:54.552Z,6.13
2022-10-23T19:13:21.730Z,5.80
2022-10-23T19:15:48.149Z,5.63
2022-10-23T19:18:14.594Z,5.80
2022-10-23T19:20:42.439Z,5.77
2022-10-23T19:23:12.736Z,6.77
2022-10-23T19:25:40.677Z,8.20
2022-10-23T19:28:07.176Z,6.80
2022-10-23T19:30:34.553Z,6.97
2022-10-23T19:33:01.000Z,6.53
2022-10-23T19:35:27.437Z,6.00
2022-10-23T19:37:53.796Z,6.87
2022-10-23T19:40:20.412Z,6.00
2022-10-23T19:42:47.047Z,5.87
2022-10-23T19:45:14.888Z,5.80
2022-10-23T19:47:42.350Z,6.63
2022-10-23T19:50:09.691Z,7.47
2022-10-23T19:52:36.503Z,7.10
2022-10-23T19:55:03.719Z,6.40
2022-10-23T19:57:33.713Z,6.00
2022-10-23T20:00:01.133Z,6.63
2022-10-23T20:02:28.317Z,7.60
2022-10-23T20:04:54.791Z,8.17
2022-10-23T20:07:21.582Z,6.60
2022-10-23T20:09:48.652Z,7.90
2022-10-23T20:12:15.045Z,8.00
2022-10-23T20:14:41.542Z,6.57
2022-10-23T20:17:08.248Z,8.00
2022-10-23T20:19:34.983Z,8.80
2022-10-23T20:22:01.477Z,7.43
2022-10-23T20:24:27.960Z,7.90
2022-10-23T20:26:55.625Z,7.60
2022-10-23T20:29:22.673Z,7.40
2022-10-23T20:31:49.076Z,6.80
2022-10-23T20:34:15.482Z,6.70
2022-10-23T20:36:46.683Z,7.17
2022-10-23T20:39:16.706Z,6.70
2022-10-23T20:41:45.009Z,6.33
2022-10-23T20:46:47.183Z,6.83
2022-10-23T20:49:14.559Z,6.57
2022-10-23T20:51:41.872Z,6.90
2022-10-23T20:54:08.345Z,6.10
2022-10-23T20:56:37.113Z,6.60
2022-10-23T20:59:09.862Z,7.30
2022-10-23T21:01:40.023Z,6.67
2022-10-23T21:04:06.865Z,6.77
2022-10-23T21:06:45.708Z,6.50
2022-10-23T21:09:18.338Z,7.30
2022-10-23T21:11:44.784Z,7.47
2022-10-23T21:14:11.742Z,7.93
2022-10-23T21:16:46.374Z,6.40
2022-10-23T21:19:15.737Z,6.47
2022-10-23T21:21:43.194Z,6.93
2022-10-23T21:24:14.065Z,6.87
2022-10-23T21:26:40.515Z,7.70
2022-10-23T21:29:18.077Z,8.00
2022-10-23T21:31:45.460Z,7.17
2022-10-23T21:34:12.073Z,6.70
2022-10-23T21:36:53.916Z,9.40
2022-10-23T21:39:25.150Z,8.47
2022-10-23T21:41:51.525Z,7.70
2022-10-23T21:44:17.995Z,8.47
2022-10-23T21:46:44.422Z,6.27
2022-10-23T21:49:11.674Z,6.50
2022-10-23T21:51:38.821Z,7.00
2022-10-23T21:54:07.990Z,7.73
2022-10-23T21:56:42.316Z,8.73
2022-10-23T21:59:12.772Z,10.00
2022-10-23T22:01:40.791Z,7.77
2022-10-23T22:04:07.463Z,6.97
2022-10-23T22:06:33.865Z,6.00
2022-10-23T22:09:00.415Z,6.53
2022-10-23T22:11:27.684Z,6.07
2022-10-23T22:13:54.591Z,8.03
2022-10-23T22:16:21.125Z,9.70
2022-10-23T22:18:48.409Z,9.07
2022-10-23T22:21:20.853Z,7.73
2022-10-23T22:23:51.055Z,6.53
2022-10-23T22:26:24.952Z,7.83
2022-10-23T22:28:53.438Z,7.00
2022-10-23T22:31:25.836Z,7.60
2022-10-23T22:33:53.223Z,7.70
2022-10-23T22:36:20.276Z,9.10
2022-10-23T22:38:47.445Z,10.47
2022-10-23T22:41:14.358Z,10.17
2022-10-23T22:43:40.732Z,10.00
2022-10-23T22:46:15.645Z,8.93
2022-10-23T22:48:42.665Z,8.30
2022-10-23T22:51:11.612Z,6.80
2022-10-23T22:53:38.089Z,7.90
2022-10-23T22:56:09.242Z,6.90
2022-10-23T22:58:36.634Z,6.43
2022-10-23T23:01:08.119Z,6.80
2022-10-23T23:03:35.996Z,7.50
2022-10-23T23:06:03.555Z,5.63
2022-10-23T23:08:30.101Z,5.73
2022-10-23T23:10:57.492Z,6.37
2022-10-23T23:13:24.534Z,6.00
2022-10-23T23:15:51.177Z,5.50
2022-10-23T23:18:17.590Z,5.00
2022-10-23T23:20:44.001Z,5.40
2022-10-23T23:23:11.807Z,5.23
2022-10-23T23:25:46.243Z,4.63
2022-10-23T23:28:16.257Z,4.73
2022-10-23T23:30:43.127Z,4.90
2022-10-23T23:33:11.234Z,5.90
2022-10-23T23:35:45.515Z,6.37
2022-10-23T23:38:12.738Z,6.30
2022-10-23T23:40:40.203Z,5.70
2022-10-23T23:43:07.048Z,5.63
2022-10-23T23:45:33.808Z,5.20
2022-10-23T23:48:00.245Z,4.47
2022-10-23T23:50:27.960Z,4.70
2022-10-23T23:52:54.411Z,4.87
2022-10-23T23:55:20.821Z,5.47
2022-10-23T23:57:47.539Z,5.20
